Time;durP1;ratioP1;P1;durP2;ratioP2;P2;SDS_P1;SDS_P2;PMS_P1;PMS_P2;Temp;Humidity;BMP_temperature;BMP_pressure;BME280_temperature;BME280_humidity;BME280_pressure;Samples;Min_cycle;Max_cycle;Signal;HPM_P1;HPM_P2
2022/04/11 00:01:55;;;;;;;4.50;1.30;;;2.90;99.90;;;;;;5100736;27;20053;-75
2022/04/11 00:04:21;;;;;;;2.88;1.50;;;2.80;99.90;;;;;;5117172;27;20039;-75
2022/04/11 00:06:46;;;;;;;3.45;1.50;;;2.80;99.90;;;;;;5117498;27;20394;-75
2022/04/11 00:09:12;;;;;;;3.95;1.50;;;2.80;99.90;;;;;;5135704;27;20035;-75
2022/04/11 00:11:38;;;;;;;2.92;1.38;;;2.80;99.90;;;;;;5117167;27;20041;-75
2022/04/11 00:14:04;;;;;;;2.10;1.38;;;2.80;99.90;;;;;;5100134;27;20043;-75
2022/04/11 00:16:30;;;;;;;5.07;1.15;;;2.80;99.90;;;;;;5100230;27;20047;-75
2022/04/11 00:18:56;;;;;;;3.67;1.80;;;2.80;99.90;;;;;;5100494;27;20432;-75
2022/04/11 00:21:22;;;;;;;3.08;1.75;;;2.80;99.90;;;;;;5083153;27;20077;-76
2022/04/11 00:23:47;;;;;;;4.15;1.50;;;2.70;99.90;;;;;;5083317;27;20050;-75
2022/04/11 00:26:13;;;;;;;3.22;1.45;;;2.80;99.90;;;;;;5117029;27;20043;-75
2022/04/11 00:28:39;;;;;;;3.90;1.55;;;2.80;99.90;;;;;;5099780;27;20050;-75
2022/04/11 00:31:04;;;;;;;3.08;1.30;;;2.70;99.90;;;;;;5116897;27;20148;-75
2022/04/11 00:33:30;;;;;;;2.78;1.42;;;2.70;99.90;;;;;;5116612;27;20043;-75
2022/04/11 00:35:55;;;;;;;4.72;1.83;;;2.70;99.90;;;;;;5100091;27;20047;-74
2022/04/11 00:38:21;;;;;;;2.70;1.58;;;2.70;99.90;;;;;;5099514;27;20123;-75
2022/04/11 00:40:47;;;;;;;5.53;1.85;;;2.70;99.90;;;;;;5115720;27;20495;-75
2022/04/11 00:43:35;;;;;;;4.68;1.65;;;2.70;99.90;;;;;;5116793;27;20051;-74
2022/04/11 00:46:01;;;;;;;3.85;1.58;;;2.70;99.90;;;;;;5099912;27;20058;-73
2022/04/11 00:48:27;;;;;;;2.92;1.60;;;2.60;99.90;;;;;;5099371;27;20376;-75
2022/04/11 00:51:07;;;;;;;3.97;1.88;;;2.70;99.90;;;;;;5116729;27;20180;-74
2022/04/11 00:53:32;;;;;;;5.47;1.40;;;2.60;99.90;;;;;;5100835;27;20180;-75
2022/04/11 00:55:58;;;;;;;4.95;1.60;;;2.50;99.90;;;;;;5099647;27;20501;-75
2022/04/11 00:58:24;;;;;;;5.55;1.85;;;2.60;99.90;;;;;;5134298;27;20425;-74
2022/04/11 01:00:50;;;;;;;2.33;1.55;;;2.60;99.90;;;;;;5099326;27;20380;-75
2022/04/11 01:03:15;;;;;;;4.78;1.73;;;2.50;99.90;;;;;;5134713;27;20043;-75
2022/04/11 01:05:42;;;;;;;3.33;1.33;;;2.50;99.90;;;;;;5098811;27;20043;-74
2022/04/11 01:08:08;;;;;;;3.60;1.67;;;2.50;99.90;;;;;;5116151;27;20479;-75
2022/04/11 01:10:34;;;;;;;2.47;1.50;;;2.50;99.90;;;;;;5099082;27;20051;-75
2022/04/11 01:13:00;;;;;;;2.95;1.40;;;2.50;99.90;;;;;;5099316;27;20051;-75
2022/04/11 01:15:26;;;;;;;2.60;1.38;;;2.50;99.90;;;;;;5081888;27;20134;-75
2022/04/11 01:17:51;;;;;;;3.38;1.63;;;2.50;99.90;;;;;;5134382;27;20125;-75
2022/04/11 01:20:17;;;;;;;4.80;1.48;;;2.50;99.90;;;;;;5115932;27;20036;-75
2022/04/11 01:22:43;;;;;;;3.30;1.40;;;2.40;99.90;;;;;;5098857;27;20235;-75
2022/04/11 01:25:12;;;;;;;3.38;1.63;;;2.40;99.90;;;;;;5099187;27;20078;-74
2022/04/11 01:27:38;;;;;;;8.68;2.08;;;2.40;99.90;;;;;;5098834;27;20047;-75
2022/04/11 01:30:05;;;;;;;2.47;1.40;;;2.40;99.90;;;;;;5099036;27;20039;-75
2022/04/11 01:32:31;;;;;;;4.63;1.58;;;2.40;99.90;;;;;;5098538;27;20043;-76
2022/04/11 01:34:56;;;;;;;4.55;1.80;;;2.50;99.90;;;;;;5082309;27;20046;-76
2022/04/11 01:37:22;;;;;;;4.43;1.75;;;2.40;99.90;;;;;;5098816;27;20109;-75
2022/04/11 01:39:48;;;;;;;2.75;1.60;;;2.50;99.90;;;;;;5115279;27;20062;-74
2022/04/11 01:42:14;;;;;;;2.15;1.40;;;2.40;99.90;;;;;;5134089;27;20055;-74
2022/04/11 01:44:39;;;;;;;4.75;1.90;;;2.30;99.90;;;;;;5115171;27;20057;-74
2022/04/11 01:47:05;;;;;;;1.95;1.35;;;2.30;99.90;;;;;;5115506;27;20049;-75
2022/04/11 01:49:30;;;;;;;2.95;1.67;;;2.30;99.90;;;;;;5115275;27;20139;-75
2022/04/11 01:51:56;;;;;;;2.72;1.70;;;2.30;99.90;;;;;;5115519;27;20491;-75
2022/04/11 01:54:22;;;;;;;2.08;1.55;;;2.30;99.90;;;;;;5133047;27;20047;-75
2022/04/11 01:56:47;;;;;;;6.47;1.85;;;2.20;99.90;;;;;;5098364;27;20937;-74
2022/04/11 01:59:14;;;;;;;2.25;1.63;;;2.30;99.90;;;;;;5115191;28;20043;-75
2022/04/11 02:01:40;;;;;;;3.38;2.10;;;2.30;99.90;;;;;;5133304;27;20054;-75
2022/04/11 02:04:06;;;;;;;1.98;1.50;;;2.30;99.90;;;;;;5115385;28;20055;-75
2022/04/11 02:06:31;;;;;;;2.92;1.58;;;2.20;99.90;;;;;;5114959;27;20122;-75
2022/04/11 02:08:57;;;;;;;5.13;1.80;;;2.20;99.90;;;;;;5081748;27;20065;-75
2022/04/11 02:11:23;;;;;;;3.10;1.52;;;2.20;99.90;;;;;;5098625;27;20475;-75
2022/04/11 02:13:48;;;;;;;3.38;1.60;;;2.20;99.90;;;;;;5133495;28;20429;-74
2022/04/11 02:16:14;;;;;;;3.78;1.83;;;2.20;99.90;;;;;;5115451;28;20054;-75
2022/04/11 02:18:40;;;;;;;2.60;1.27;;;2.20;99.90;;;;;;5097867;28;20039;-74
2022/04/11 02:21:05;;;;;;;3.15;1.90;;;2.20;99.90;;;;;;5115451;28;20039;-75
2022/04/11 02:23:31;;;;;;;3.72;1.70;;;2.20;99.90;;;;;;5115295;28;20047;-75
2022/04/11 02:25:57;;;;;;;4.90;1.90;;;2.20;99.90;;;;;;5115233;28;20376;-74
2022/04/11 02:28:22;;;;;;;3.65;1.67;;;2.10;99.90;;;;;;5098523;28;20122;-75
2022/04/11 02:30:48;;;;;;;3.50;2.15;;;2.10;99.90;;;;;;5114921;28;20076;-75
2022/04/11 02:33:14;;;;;;;3.25;1.55;;;2.10;99.90;;;;;;5133436;28;20148;-75
2022/04/11 02:35:41;;;;;;;3.53;1.60;;;2.10;99.90;;;;;;5114885;28;20467;-75
2022/04/11 02:38:06;;;;;;;3.70;1.52;;;2.10;99.90;;;;;;5133263;28;20051;-75
2022/04/11 02:40:32;;;;;;;2.88;1.60;;;2.00;99.90;;;;;;5114716;28;20055;-75
2022/04/11 02:42:58;;;;;;;2.88;1.70;;;2.00;99.90;;;;;;5132905;28;20043;-75
2022/04/11 02:45:24;;;;;;;3.45;1.83;;;2.00;99.90;;;;;;5097999;28;20043;-75
2022/04/11 02:47:50;;;;;;;2.58;1.60;;;2.00;99.90;;;;;;5097923;28;20062;-75
2022/04/11 02:50:16;;;;;;;3.75;2.17;;;2.00;99.90;;;;;;5114868;28;20387;-75
2022/04/11 02:52:41;;;;;;;3.00;1.90;;;2.00;99.90;;;;;;5114451;28;20459;-75
2022/04/11 02:55:07;;;;;;;3.85;1.90;;;2.00;99.90;;;;;;5114902;28;20440;-75
2022/04/11 02:57:33;;;;;;;2.60;1.55;;;2.00;99.90;;;;;;5098068;28;20043;-75
2022/04/11 02:59:59;;;;;;;4.75;2.35;;;1.90;99.90;;;;;;5132360;28;20088;-74
2022/04/11 03:02:24;;;;;;;6.20;2.28;;;1.90;99.90;;;;;;5133142;28;20043;-75
2022/04/11 03:04:50;;;;;;;3.78;2.10;;;1.90;99.90;;;;;;5099324;27;20074;-75
2022/04/11 03:07:16;;;;;;;3.90;2.10;;;1.90;99.90;;;;;;5118341;27;20506;-76
2022/04/11 03:09:41;;;;;;;4.30;2.42;;;1.90;99.90;;;;;;5118206;27;20084;-74
2022/04/11 03:12:08;;;;;;;4.00;2.30;;;1.90;99.90;;;;;;5118906;27;20064;-75
2022/04/11 03:14:33;;;;;;;4.45;2.20;;;1.90;99.90;;;;;;5118344;27;20051;-75
2022/04/11 03:16:59;;;;;;;6.55;2.22;;;1.90;99.90;;;;;;5084421;27;20062;-75
2022/04/11 03:19:25;;;;;;;4.15;2.15;;;1.80;99.90;;;;;;5136449;27;20039;-75
2022/04/11 03:21:51;;;;;;;3.65;1.88;;;1.80;99.90;;;;;;5100997;27;20298;-74
2022/04/11 03:24:16;;;;;;;4.82;1.92;;;1.80;99.90;;;;;;5136323;27;20050;-74
2022/04/11 03:26:42;;;;;;;4.78;2.67;;;1.80;99.90;;;;;;5117987;27;20043;-74
2022/04/11 03:29:08;;;;;;;5.78;2.50;;;1.80;99.90;;;;;;5136513;27;20116;-75
2022/04/11 03:31:33;;;;;;;3.08;2.35;;;1.80;99.90;;;;;;5118528;27;20039;-74
2022/04/11 03:33:59;;;;;;;3.50;2.05;;;1.80;99.90;;;;;;5136104;27;20072;-74
2022/04/11 03:36:24;;;;;;;3.30;2.08;;;1.80;99.90;;;;;;5118085;27;20116;-74
2022/04/11 03:38:50;;;;;;;3.72;1.90;;;1.80;99.90;;;;;;5117431;27;20467;-74
2022/04/11 03:41:16;;;;;;;3.88;1.70;;;1.90;99.90;;;;;;5117798;27;20402;-74
2022/04/11 03:43:42;;;;;;;3.85;2.15;;;1.90;99.90;;;;;;5118004;27;20085;-74
2022/04/11 03:46:08;;;;;;;3.30;1.88;;;1.90;99.90;;;;;;5136366;27;20051;-74
2022/04/11 03:48:34;;;;;;;2.53;2.17;;;1.90;99.90;;;;;;5136182;27;20051;-74
2022/04/11 03:51:00;;;;;;;3.38;2.10;;;2.00;99.90;;;;;;5117480;27;20054;-74
2022/04/11 03:53:25;;;;;;;3.80;2.15;;;2.00;99.90;;;;;;5117870;27;20043;-74
2022/04/11 03:55:51;;;;;;;4.18;2.03;;;2.00;99.90;;;;;;5135676;27;20039;-74
2022/04/11 03:58:17;;;;;;;4.43;2.15;;;2.10;99.90;;;;;;5117611;27;20095;-74
2022/04/11 04:00:42;;;;;;;3.55;2.10;;;2.00;99.90;;;;;;5117720;27;20403;-74
2022/04/11 04:03:10;;;;;;;3.55;1.95;;;2.10;99.90;;;;;;5117385;27;20066;-74
2022/04/11 04:05:43;;;;;;;2.03;1.83;;;2.10;99.90;;;;;;5100809;27;20089;-74
2022/04/11 04:08:09;;;;;;;2.50;1.90;;;2.10;99.90;;;;;;5117293;27;20508;-73
2022/04/11 04:10:34;;;;;;;3.92;2.15;;;2.10;99.90;;;;;;5117419;27;20043;-74
2022/04/11 04:13:01;;;;;;;4.40;2.33;;;2.20;99.90;;;;;;5135338;27;20184;-74
2022/04/11 04:15:26;;;;;;;3.58;2.22;;;2.20;99.90;;;;;;5117016;28;20050;-74
2022/04/11 04:17:52;;;;;;;3.78;2.10;;;2.20;99.90;;;;;;5099696;27;20039;-74
2022/04/11 04:20:18;;;;;;;4.25;1.92;;;2.20;99.90;;;;;;5135517;27;20043;-74
2022/04/11 04:22:44;;;;;;;3.72;2.20;;;2.20;99.90;;;;;;5117382;27;20038;-74
2022/04/11 04:25:09;;;;;;;3.75;2.17;;;2.20;99.90;;;;;;5116765;27;20432;-74
2022/04/11 04:27:35;;;;;;;2.72;2.15;;;2.30;99.90;;;;;;5100452;27;20035;-74
2022/04/11 04:30:00;;;;;;;4.45;2.30;;;2.40;99.90;;;;;;5116935;27;20051;-78
2022/04/11 04:32:27;;;;;;;3.28;2.05;;;2.40;99.90;;;;;;5117250;27;20035;-74
2022/04/11 04:34:53;;;;;;;4.82;2.00;;;2.40;99.90;;;;;;5116778;27;20047;-73
2022/04/11 04:37:18;;;;;;;3.05;1.83;;;2.40;99.90;;;;;;5116946;27;20130;-73
2022/04/11 04:39:44;;;;;;;5.60;2.20;;;2.40;99.90;;;;;;5082996;27;20042;-73
2022/04/11 04:42:10;;;;;;;3.15;2.10;;;2.50;99.90;;;;;;5081403;27;20510;-73
2022/04/11 04:44:40;;;;;;;3.53;2.10;;;2.50;99.90;;;;;;5099838;27;20086;-74
2022/04/11 04:47:06;;;;;;;2.30;2.08;;;2.50;99.90;;;;;;5099376;27;20058;-73
2022/04/11 04:49:32;;;;;;;2.53;2.05;;;2.50;99.90;;;;;;5116735;27;20039;-73
2022/04/11 04:51:58;;;;;;;2.38;2.00;;;2.50;99.90;;;;;;5116387;27;20045;-73
2022/04/11 04:54:24;;;;;;;4.35;2.38;;;2.50;99.90;;;;;;5134785;27;20039;-73
2022/04/11 04:56:49;;;;;;;5.70;2.40;;;2.50;99.90;;;;;;5116523;27;20047;-73
2022/04/11 04:59:15;;;;;;;2.95;2.28;;;2.60;99.90;;;;;;5116109;27;20043;-73
2022/04/11 05:01:41;;;;;;;3.50;2.20;;;2.60;99.90;;;;;;5134912;27;20163;-74
2022/04/11 05:04:07;;;;;;;3.38;2.30;;;2.60;99.90;;;;;;5116030;27;20051;-75
2022/04/11 05:06:33;;;;;;;3.40;2.00;;;2.60;99.90;;;;;;5116508;27;20107;-74
2022/04/11 05:08:59;;;;;;;3.15;2.35;;;2.60;99.90;;;;;;5115802;27;20145;-75
2022/04/11 05:11:31;;;;;;;4.13;2.50;;;2.70;99.90;;;;;;5101077;27;20073;-74
2022/04/11 05:13:56;;;;;;;3.28;2.50;;;2.70;99.90;;;;;;5098850;27;20051;-75
2022/04/11 05:16:22;;;;;;;3.80;2.50;;;2.70;99.90;;;;;;5099109;27;20042;-75
2022/04/11 05:18:48;;;;;;;4.53;2.67;;;2.80;99.90;;;;;;5082074;27;20043;-75
2022/04/11 05:21:14;;;;;;;5.10;2.65;;;2.80;99.90;;;;;;5115673;27;20471;-75
2022/04/11 05:23:41;;;;;;;3.90;2.70;;;2.80;99.90;;;;;;5099194;27;20047;-75
2022/04/11 05:26:08;;;;;;;6.13;2.40;;;2.80;99.90;;;;;;5115645;27;20051;-75
2022/04/11 05:28:34;;;;;;;6.57;2.92;;;2.90;99.90;;;;;;5099385;27;20076;-74
2022/04/11 05:30:59;;;;;;;3.10;2.45;;;2.90;99.90;;;;;;5115671;27;20039;-75
2022/04/11 05:33:25;;;;;;;4.82;2.55;;;2.90;99.90;;;;;;5082187;27;20050;-75
2022/04/11 05:35:51;;;;;;;2.88;2.67;;;2.90;99.90;;;;;;5082263;27;20050;-74
2022/04/11 05:38:17;;;;;;;4.90;3.15;;;2.90;99.90;;;;;;5098754;27;20383;-74
2022/04/11 05:40:45;;;;;;;6.78;3.00;;;2.90;99.90;;;;;;5115432;27;20138;-74
2022/04/11 05:43:13;;;;;;;5.60;3.08;;;2.90;99.90;;;;;;5098657;27;20055;-74
2022/04/11 05:45:41;;;;;;;7.55;2.72;;;3.00;99.90;;;;;;5115923;27;20050;-74
2022/04/11 05:48:08;;;;;;;3.80;2.75;;;3.00;99.90;;;;;;5099094;27;20115;-74
2022/04/11 05:50:34;;;;;;;4.53;2.90;;;3.10;99.90;;;;;;5082016;27;20391;-74
2022/04/11 05:53:00;;;;;;;5.15;2.95;;;3.10;99.90;;;;;;5098772;27;20047;-74
2022/04/11 05:55:26;;;;;;;4.40;2.83;;;3.10;99.90;;;;;;5115615;27;20043;-74
2022/04/11 05:57:53;;;;;;;4.65;2.70;;;3.10;99.90;;;;;;5115775;27;20104;-74
2022/04/11 06:00:19;;;;;;;6.00;2.88;;;3.10;99.90;;;;;;5098306;27;20095;-75
2022/04/11 06:02:44;;;;;;;4.03;2.65;;;3.10;99.90;;;;;;5115640;27;20413;-75
2022/04/11 06:05:11;;;;;;;3.22;2.40;;;3.20;99.90;;;;;;5098202;27;20099;-75
2022/04/11 06:07:37;;;;;;;6.18;2.88;;;3.20;99.90;;;;;;5098594;27;20039;-75
2022/04/11 06:10:03;;;;;;;3.97;2.50;;;3.20;99.90;;;;;;5081842;28;20042;-75
2022/04/11 06:12:29;;;;;;;3.58;2.60;;;3.30;99.90;;;;;;5098562;28;20043;-75
2022/04/11 06:14:55;;;;;;;4.45;2.58;;;3.40;99.90;;;;;;5081512;28;20043;-75
2022/04/11 06:17:23;;;;;;;4.57;2.63;;;3.40;99.90;;;;;;5115061;28;20191;-75
2022/04/11 06:19:53;;;;;;;4.88;2.83;;;3.40;99.90;;;;;;5081958;28;20039;-75
2022/04/11 06:22:19;;;;;;;4.30;2.72;;;3.40;99.90;;;;;;5081113;28;20051;-75
2022/04/11 06:24:45;;;;;;;5.45;2.78;;;3.40;99.90;;;;;;5081808;28;20057;-75
2022/04/11 06:27:11;;;;;;;4.22;2.80;;;3.50;99.90;;;;;;5098057;28;20050;-75
2022/04/11 06:29:36;;;;;;;3.17;2.40;;;3.50;99.90;;;;;;5133590;28;20043;-75
2022/04/11 06:32:04;;;;;;;5.47;2.60;;;3.50;99.90;;;;;;5115252;28;20086;-75
2022/04/11 06:34:56;;;;;;;4.78;2.88;;;3.60;99.90;;;;;;5097893;28;20042;-75
2022/04/11 06:37:23;;;;;;;4.68;2.70;;;3.70;99.90;;;;;;5098067;28;20061;-76
2022/04/11 06:39:49;;;;;;;4.82;2.75;;;3.70;99.90;;;;;;5117091;27;20047;-75
2022/04/11 06:42:15;;;;;;;5.30;2.38;;;3.80;99.90;;;;;;5084702;27;20059;-75
2022/04/11 06:44:40;;;;;;;4.15;2.63;;;3.80;99.90;;;;;;5119037;27;20453;-75
2022/04/11 06:47:06;;;;;;;3.83;2.50;;;3.90;99.90;;;;;;5119156;27;20096;-75
2022/04/11 06:49:32;;;;;;;3.75;1.98;;;3.90;99.90;;;;;;5101556;27;20043;-76
2022/04/11 06:51:58;;;;;;;5.53;2.30;;;3.90;99.90;;;;;;5085511;27;20391;-75
2022/04/11 06:54:23;;;;;;;3.50;2.28;;;4.00;99.90;;;;;;5084907;27;20531;-75
2022/04/11 06:56:49;;;;;;;5.60;2.40;;;4.10;99.90;;;;;;5137408;27;20051;-74
2022/04/11 06:59:17;;;;;;;2.53;2.00;;;4.10;99.90;;;;;;5136830;27;20360;-74
2022/04/11 07:01:43;;;;;;;6.53;2.15;;;4.20;99.90;;;;;;5136906;27;20500;-75
2022/04/11 07:04:09;;;;;;;3.33;2.00;;;4.30;99.90;;;;;;5101985;27;20139;-75
2022/04/11 07:06:34;;;;;;;3.67;2.17;;;4.40;99.90;;;;;;5101586;27;20043;-75
2022/04/11 07:09:00;;;;;;;4.82;2.22;;;4.40;99.90;;;;;;5084975;27;20046;-75
2022/04/11 07:11:26;;;;;;;4.25;1.70;;;4.40;99.90;;;;;;5118457;27;20425;-75
2022/04/11 07:13:51;;;;;;;3.90;1.90;;;4.50;99.90;;;;;;5101745;27;20059;-75
2022/04/11 07:16:17;;;;;;;4.05;1.98;;;4.50;99.90;;;;;;5100707;27;20078;-75
2022/04/11 07:18:43;;;;;;;5.25;2.10;;;4.60;99.90;;;;;;5084736;27;20050;-75
2022/04/11 07:21:08;;;;;;;3.88;1.90;;;4.60;99.90;;;;;;5118551;27;20047;-75
2022/04/11 07:23:34;;;;;;;3.85;1.70;;;4.70;99.90;;;;;;5100979;27;20130;-75
2022/04/11 07:26:00;;;;;;;8.52;2.20;;;4.80;99.90;;;;;;5101398;27;20047;-75
2022/04/11 07:28:26;;;;;;;4.70;1.98;;;4.90;99.90;;;;;;5101132;27;20110;-75
2022/04/11 07:30:51;;;;;;;3.65;1.95;;;5.00;99.90;;;;;;5118346;27;20513;-75
2022/04/11 07:33:17;;;;;;;2.95;1.92;;;5.00;99.90;;;;;;5101050;27;20137;-75
2022/04/11 07:35:43;;;;;;;3.08;2.55;;;5.10;99.90;;;;;;5101187;27;20047;-75
2022/04/11 07:38:09;;;;;;;3.47;2.10;;;5.20;99.90;;;;;;5084491;27;20399;-75
2022/04/11 07:40:34;;;;;;;4.45;2.10;;;5.20;99.90;;;;;;5100305;27;20043;-75
2022/04/11 07:43:00;;;;;;;3.97;2.00;;;5.30;99.90;;;;;;5118155;27;20051;-75
2022/04/11 07:45:26;;;;;;;3.88;2.30;;;5.40;99.90;;;;;;5100676;27;20039;-75
2022/04/11 07:47:51;;;;;;;3.17;1.88;;;5.50;99.90;;;;;;5118192;27;20043;-75
2022/04/11 07:50:17;;;;;;;5.28;2.78;;;5.60;99.90;;;;;;5100402;28;20065;-75
2022/04/11 07:52:43;;;;;;;4.93;2.22;;;5.70;99.90;;;;;;5117449;27;20058;-75
2022/04/11 07:55:10;;;;;;;4.53;2.08;;;5.80;99.90;;;;;;5084252;27;20051;-75
2022/04/11 07:57:36;;;;;;;4.30;2.10;;;5.90;99.90;;;;;;5117423;27;20514;-75
2022/04/11 08:00:02;;;;;;;3.10;2.05;;;6.00;99.90;;;;;;5083858;27;20047;-77
2022/04/11 08:02:28;;;;;;;3.88;2.20;;;6.10;99.90;;;;;;5100498;27;20456;-75
2022/04/11 08:04:54;;;;;;;5.07;2.28;;;6.20;99.90;;;;;;5117717;27;20050;-75
2022/04/11 08:07:20;;;;;;;4.05;2.00;;;6.30;99.90;;;;;;5100940;27;20058;-75
2022/04/11 08:09:46;;;;;;;6.57;2.70;;;6.30;99.90;;;;;;5117648;27;20437;-75
2022/04/11 08:12:12;;;;;;;4.68;2.30;;;6.40;99.90;;;;;;5117753;27;20372;-74
2022/04/11 08:14:37;;;;;;;6.53;2.28;;;6.50;99.90;;;;;;5135364;27;20053;-75
2022/04/11 08:17:03;;;;;;;6.20;2.13;;;6.50;99.90;;;;;;5100812;27;20090;-75
2022/04/11 08:19:32;;;;;;;7.07;2.38;;;6.70;99.90;;;;;;5135128;27;20051;-75
2022/04/11 08:21:58;;;;;;;3.53;2.22;;;6.60;99.90;;;;;;5100363;27;20047;-75
2022/04/11 08:24:23;;;;;;;5.25;2.53;;;6.70;99.90;;;;;;5116906;27;20047;-75
2022/04/11 08:26:49;;;;;;;5.05;2.28;;;6.80;99.90;;;;;;5117404;27;20550;-75
2022/04/11 08:29:17;;;;;;;5.43;2.38;;;6.80;99.90;;;;;;5100297;27;20039;-75
2022/04/11 08:31:43;;;;;;;4.78;2.35;;;6.90;99.90;;;;;;5135007;27;20055;-75
2022/04/11 08:34:09;;;;;;;7.63;2.28;;;6.90;99.90;;;;;;5117097;27;20051;-75
2022/04/11 08:36:35;;;;;;;4.88;2.50;;;6.90;99.90;;;;;;5099887;27;20051;-75
2022/04/11 08:39:00;;;;;;;7.40;2.83;;;6.90;99.90;;;;;;5135305;27;20050;-75
2022/04/11 08:41:28;;;;;;;11.93;2.78;;;6.80;99.90;;;;;;5116508;27;20145;-76
2022/04/11 08:43:54;;;;;;;6.97;2.55;;;6.80;99.90;;;;;;5100441;27;20424;-75
2022/04/11 08:46:20;;;;;;;5.90;2.53;;;6.80;99.90;;;;;;5116866;27;20131;-75
2022/04/11 08:48:46;;;;;;;5.03;2.30;;;6.80;99.90;;;;;;5134616;27;20049;-75
2022/04/11 08:51:12;;;;;;;10.05;2.60;;;6.80;99.90;;;;;;5117251;27;20049;-75
2022/04/11 08:53:38;;;;;;;4.68;2.45;;;6.90;99.90;;;;;;5116394;27;20432;-75
2022/04/11 08:56:04;;;;;;;4.93;2.33;;;6.90;99.90;;;;;;5099865;27;20413;-75
2022/04/11 08:58:29;;;;;;;8.13;2.55;;;6.90;99.90;;;;;;5099532;27;20039;-75
2022/04/11 09:00:55;;;;;;;6.30;2.00;;;6.90;99.90;;;;;;5099636;27;20121;-75
2022/04/11 09:03:21;;;;;;;4.47;2.20;;;7.00;99.90;;;;;;5082407;27;20043;-75
2022/04/11 09:06:04;;;;;;;6.45;2.40;;;6.90;99.90;;;;;;5116079;27;20043;-75
2022/04/11 09:08:52;;;;;;;4.53;2.60;;;7.10;99.90;;;;;;5099788;27;20046;-75
2022/04/11 09:11:28;;;;;;;8.82;2.28;;;7.10;99.90;;;;;;5134847;27;20053;-75
2022/04/11 09:13:54;;;;;;;6.28;2.50;;;7.20;99.90;;;;;;5134741;27;20046;-75
2022/04/11 09:16:20;;;;;;;6.10;2.10;;;7.10;99.90;;;;;;5116338;27;20035;-75
2022/04/11 09:18:50;;;;;;;5.97;2.10;;;7.30;99.90;;;;;;5115780;27;20054;-75
2022/04/11 09:21:16;;;;;;;3.25;2.00;;;7.40;99.90;;;;;;5099294;27;20051;-75
2022/04/11 09:23:42;;;;;;;3.83;1.73;;;7.40;99.70;;;;;;5115825;27;20042;-75
2022/04/11 09:26:15;;;;;;;3.78;1.90;;;7.40;99.20;;;;;;5099122;27;20047;-75
2022/04/11 09:28:41;;;;;;;5.20;2.03;;;7.50;98.20;;;;;;5115715;27;20050;-75
2022/04/11 09:31:07;;;;;;;5.25;2.40;;;7.60;98.50;;;;;;5116233;27;20100;-75
2022/04/11 09:33:39;;;;;;;4.85;2.10;;;7.60;98.50;;;;;;5098966;27;20047;-82
2022/04/11 09:36:05;;;;;;;5.75;2.17;;;7.70;97.40;;;;;;5082043;27;20050;-75
2022/04/11 09:38:36;;;;;;;2.80;1.88;;;7.70;97.90;;;;;;5099073;27;20391;-75
2022/04/11 09:41:03;;;;;;;4.55;1.90;;;7.80;97.60;;;;;;5098901;27;20055;-76
2022/04/11 09:43:30;;;;;;;5.03;1.90;;;8.00;97.40;;;;;;5082049;27;20051;-75
2022/04/11 09:45:56;;;;;;;4.07;1.90;;;7.90;97.10;;;;;;5098672;27;20055;-76
2022/04/11 09:48:26;;;;;;;4.93;2.00;;;8.00;96.50;;;;;;5134126;27;20387;-76
2022/04/11 09:50:53;;;;;;;4.75;1.70;;;8.10;94.20;;;;;;5098102;27;20487;-75
2022/04/11 09:53:19;;;;;;;6.80;2.10;;;8.10;94.50;;;;;;5115637;27;20043;-76
2022/04/11 09:55:50;;;;;;;3.85;2.20;;;8.20;94.20;;;;;;5098162;27;20071;-76
2022/04/11 09:58:16;;;;;;;4.07;2.15;;;8.20;91.80;;;;;;5098912;27;20425;-75
2022/04/11 10:00:42;;;;;;;3.97;2.03;;;8.40;93.20;;;;;;5098040;27;20043;-76
2022/04/11 10:03:08;;;;;;;5.03;1.90;;;8.40;92.20;;;;;;5098769;27;20103;-75
2022/04/11 10:05:38;;;;;;;3.65;1.90;;;8.50;92.50;;;;;;5115611;27;20060;-76
2022/04/11 10:08:05;;;;;;;4.90;2.17;;;8.60;90.50;;;;;;5115357;27;20092;-76
2022/04/11 10:10:34;;;;;;;5.07;1.88;;;8.60;88.20;;;;;;5098862;28;20111;-77
2022/04/11 10:13:00;;;;;;;4.82;2.13;;;8.70;84.10;;;;;;5098455;27;20126;-76
2022/04/11 10:15:26;;;;;;;4.22;2.10;;;8.70;83.00;;;;;;5115007;28;20364;-77
2022/04/11 10:17:53;;;;;;;5.75;1.92;;;8.80;84.10;;;;;;5115158;28;20112;-76
2022/04/11 10:20:34;;;;;;;3.25;1.95;;;8.90;83.70;;;;;;5098491;28;20043;-76
2022/04/11 10:23:30;;;;;;;6.47;2.15;;;8.90;74.70;;;;;;5098709;28;20420;-76
2022/04/11 10:25:58;;;;;;;2.90;1.90;;;9.10;76.30;;;;;;5098016;28;20047;-76
2022/04/11 10:28:28;;;;;;;3.90;2.15;;;9.10;79.70;;;;;;5115261;28;20051;-76
2022/04/11 10:31:05;;;;;;;4.22;2.22;;;9.20;76.40;;;;;;5115319;28;20039;-77
2022/04/11 10:33:49;;;;;;;4.55;2.28;;;9.20;75.10;;;;;;5098434;28;20035;-76
2022/04/11 10:36:30;;;;;;;6.53;2.55;;;9.30;77.70;;;;;;5133517;28;20082;-76
2022/04/11 10:39:17;;;;;;;6.15;2.40;;;9.30;77.90;;;;;;5115872;28;20066;-76
2022/04/11 10:41:57;;;;;;;4.10;2.35;;;9.40;77.40;;;;;;5132958;28;20395;-83
2022/04/11 10:44:33;;;;;;;2.53;2.10;;;9.50;78.30;;;;;;5133534;28;20058;-77
2022/04/11 10:47:07;;;;;;;6.13;3.00;;;9.60;79.40;;;;;;5132970;28;20050;-76
2022/04/11 10:49:48;;;;;;;4.43;2.35;;;9.60;79.90;;;;;;5115398;28;20085;-77
2022/04/11 10:52:32;;;;;;;5.68;2.53;;;9.70;75.90;;;;;;5133313;28;20039;-76
2022/04/11 10:55:04;;;;;;;5.03;2.20;;;9.80;79.60;;;;;;5114857;28;20061;-77
2022/04/11 10:57:33;;;;;;;4.30;2.50;;;9.80;77.20;;;;;;5133261;28;20134;-77
2022/04/11 11:00:18;;;;;;;3.67;2.50;;;9.90;80.40;;;;;;5097742;28;20043;-77
2022/04/11 11:02:52;;;;;;;5.82;2.78;;;9.90;76.50;;;;;;5115122;28;20054;-76
2022/04/11 11:05:31;;;;;;;4.20;2.53;;;10.00;76.30;;;;;;5115278;28;20100;-76
2022/04/11 11:10:56;;;;;;;6.18;3.00;;;10.20;75.80;;;;;;5115115;28;20059;-77
2022/04/11 11:13:34;;;;;;;5.68;2.72;;;10.20;75.40;;;;;;5098076;28;20387;-77
2022/04/11 11:16:01;;;;;;;5.03;2.83;;;10.20;73.20;;;;;;5132782;28;20065;-76
2022/04/11 11:18:27;;;;;;;5.63;2.78;;;10.20;75.00;;;;;;5097734;28;20054;-77
2022/04/11 11:20:57;;;;;;;3.75;2.55;;;10.30;74.40;;;;;;5114338;28;20491;-77
2022/04/11 11:23:33;;;;;;;4.38;2.70;;;10.50;72.00;;;;;;5114741;28;20127;-77
2022/04/11 11:26:15;;;;;;;4.82;2.92;;;10.50;72.30;;;;;;5115859;27;20063;-77
2022/04/11 11:28:44;;;;;;;5.80;3.10;;;10.60;70.30;;;;;;5118589;27;20047;-77
2022/04/11 11:31:10;;;;;;;5.65;2.97;;;10.60;72.20;;;;;;5136532;27;20058;-77
2022/04/11 11:33:36;;;;;;;5.60;3.15;;;10.60;72.90;;;;;;5101243;27;20039;-77
2022/04/11 11:36:02;;;;;;;6.53;3.55;;;10.60;72.80;;;;;;5101354;27;20126;-77
2022/04/11 11:38:29;;;;;;;6.93;3.30;;;10.70;74.60;;;;;;5101531;27;20047;-77
2022/04/11 11:40:59;;;;;;;5.15;3.50;;;10.80;73.30;;;;;;5083561;27;20098;-76
2022/04/11 11:43:26;;;;;;;7.80;3.60;;;10.80;70.90;;;;;;5118091;27;20051;-77
2022/04/11 11:45:52;;;;;;;7.65;3.17;;;10.90;73.00;;;;;;5136418;27;20051;-81
2022/04/11 11:48:36;;;;;;;4.53;3.55;;;11.00;74.10;;;;;;5084116;27;20150;-77
2022/04/11 11:51:02;;;;;;;6.95;3.13;;;11.10;71.40;;;;;;5117264;27;20050;-77
2022/04/11 11:53:41;;;;;;;6.45;3.50;;;11.20;70.50;;;;;;5100593;27;20403;-77
2022/04/11 11:56:09;;;;;;;5.75;3.65;;;11.20;67.60;;;;;;5083244;27;20043;-77
2022/04/11 11:58:39;;;;;;;8.32;3.60;;;11.30;69.30;;;;;;5118193;27;20179;-77
2022/04/11 12:01:05;;;;;;;5.45;3.38;;;11.40;67.80;;;;;;5083838;27;20100;-77
2022/04/11 12:06:27;;;;;;;4.50;3.30;;;11.50;65.30;;;;;;5117218;27;20055;-77
2022/04/11 12:09:03;;;;;;;4.80;2.97;;;11.50;65.10;;;;;;5100947;27;20085;-77
2022/04/11 12:11:29;;;;;;;6.25;3.50;;;11.50;64.60;;;;;;5117865;27;20047;-77
2022/04/11 12:14:02;;;;;;;7.75;3.80;;;11.40;65.70;;;;;;5117714;27;20361;-77
2022/04/11 12:16:29;;;;;;;8.80;3.50;;;11.50;64.60;;;;;;5101315;27;20062;-77
2022/04/11 12:18:56;;;;;;;5.30;3.25;;;11.50;65.70;;;;;;5117546;27;20528;-77
2022/04/11 12:21:48;;;;;;;5.78;3.40;;;11.60;65.50;;;;;;5100448;27;20051;-78
2022/04/11 12:24:14;;;;;;;4.78;3.67;;;11.60;65.10;;;;;;5113761;27;20055;-77
2022/04/11 12:26:45;;;;;;;6.10;3.53;;;11.60;66.00;;;;;;5117445;27;20039;-77
2022/04/11 12:29:11;;;;;;;;;;;11.60;65.50;;;;;;5101191;27;20059;-77
2022/04/11 12:31:40;;;;;;;4.85;3.40;;;11.60;63.30;;;;;;5100429;27;19919;-77
2022/04/11 12:34:12;;;;;;;5.85;3.90;;;11.60;66.50;;;;;;5083567;27;20035;-77
2022/04/11 12:36:55;;;;;;;7.40;4.13;;;11.70;64.40;;;;;;5116450;28;20103;-77
2022/04/11 12:39:25;;;;;;;8.90;3.97;;;11.70;63.50;;;;;;5116594;27;20162;-77
2022/04/11 12:41:50;;;;;;;7.10;4.05;;;11.80;64.90;;;;;;5100390;27;20051;-77
2022/04/11 12:44:32;;;;;;;7.07;3.95;;;11.70;64.00;;;;;;5082926;27;20039;-77
2022/04/11 12:46:58;;;;;;;7.68;3.92;;;11.80;63.00;;;;;;5116875;27;20101;-76
2022/04/11 12:49:24;;;;;;;7.22;4.10;;;11.80;61.90;;;;;;5134731;27;20075;-76
2022/04/11 12:52:00;;;;;;;6.57;4.15;;;11.80;62.90;;;;;;5082665;27;20537;-76
2022/04/11 12:54:34;;;;;;;6.03;3.80;;;11.80;62.60;;;;;;5099207;27;20105;-76
2022/04/11 12:57:00;;;;;;;4.88;3.60;;;11.90;63.80;;;;;;5100039;27;20111;-76
2022/04/11 12:59:38;;;;;;;7.22;4.35;;;11.90;63.80;;;;;;5115463;27;20089;-77
2022/04/11 13:02:07;;;;;;;7.70;4.72;;;12.00;63.60;;;;;;5099767;27;20043;-83
2022/04/11 13:04:37;;;;;;;6.05;3.90;;;12.00;60.30;;;;;;5099707;27;20086;-77